sensor_id;sensor_type;location;lat;lon;timestamp;pressure;altitude;pressure_sealevel;temperature;humidity
34742;BME280;20968;42.696;23.360;2023-02-03T00:00:11;95468.59;;;4.65;64.65
34742;BME280;20968;42.696;23.360;2023-02-03T00:02:37;95465.66;;;4.59;65.10
34742;BME280;20968;42.696;23.360;2023-02-03T00:05:08;95466.81;;;4.46;65.53
34742;BME280;20968;42.696;23.360;2023-02-03T00:07:35;95440.13;;;4.25;65.62
34742;BME280;20968;42.696;23.360;2023-02-03T00:10:03;95469.84;;;4.36;66.20
34742;BME280;20968;42.696;23.360;2023-02-03T00:12:30;95457.16;;;4.29;66.07
34742;BME280;20968;42.696;23.360;2023-02-03T00:15:02;95473.13;;;4.43;66.90
34742;BME280;20968;42.696;23.360;2023-02-03T00:17:28;95488.72;;;4.43;66.92
34742;BME280;20968;42.696;23.360;2023-02-03T00:19:54;95474.97;;;4.34;67.27
34742;BME280;20968;42.696;23.360;2023-02-03T00:22:23;95479.38;;;4.44;67.96
34742;BME280;20968;42.696;23.360;2023-02-03T00:24:48;95454.97;;;4.24;67.81
34742;BME280;20968;42.696;23.360;2023-02-03T00:27:14;95470.06;;;4.41;67.55
34742;BME280;20968;42.696;23.360;2023-02-03T00:29:39;95483.50;;;4.48;68.04
34742;BME280;20968;42.696;23.360;2023-02-03T00:32:05;95473.66;;;4.38;67.49
34742;BME280;20968;42.696;23.360;2023-02-03T00:34:30;95482.66;;;4.51;68.13
34742;BME280;20968;42.696;23.360;2023-02-03T00:36:59;95481.09;;;4.50;67.45
34742;BME280;20968;42.696;23.360;2023-02-03T00:39:24;95490.16;;;4.47;68.20
34742;BME280;20968;42.696;23.360;2023-02-03T00:41:49;95496.81;;;4.46;68.49
34742;BME280;20968;42.696;23.360;2023-02-03T00:44:16;95496.22;;;4.39;68.54
34742;BME280;20968;42.696;23.360;2023-02-03T00:46:42;95512.16;;;4.40;68.84
34742;BME280;20968;42.696;23.360;2023-02-03T00:49:08;95509.19;;;4.35;69.60
34742;BME280;20968;42.696;23.360;2023-02-03T00:51:37;95518.31;;;4.28;70.33
34742;BME280;20968;42.696;23.360;2023-02-03T00:54:07;95508.41;;;4.34;69.97
34742;BME280;20968;42.696;23.360;2023-02-03T00:56:33;95500.47;;;4.40;69.97
34742;BME280;20968;42.696;23.360;2023-02-03T00:58:59;95517.97;;;4.26;70.60
34742;BME280;20968;42.696;23.360;2023-02-03T01:01:28;95516.22;;;4.20;70.84
34742;BME280;20968;42.696;23.360;2023-02-03T01:03:56;95491.63;;;4.07;71.04
34742;BME280;20968;42.696;23.360;2023-02-03T01:06:23;95527.66;;;4.27;71.00
34742;BME280;20968;42.696;23.360;2023-02-03T01:08:50;95536.72;;;4.24;70.85
34742;BME280;20968;42.696;23.360;2023-02-03T01:11:28;95518.16;;;4.03;71.95
34742;BME280;20968;42.696;23.360;2023-02-03T01:14:05;95518.34;;;3.96;71.96
34742;BME280;20968;42.696;23.360;2023-02-03T01:16:30;95500.75;;;3.85;71.90
34742;BME280;20968;42.696;23.360;2023-02-03T01:19:05;95512.25;;;3.92;72.13
34742;BME280;20968;42.696;23.360;2023-02-03T01:21:33;95512.50;;;3.82;73.05
34742;BME280;20968;42.696;23.360;2023-02-03T01:24:04;95510.69;;;3.91;72.48
34742;BME280;20968;42.696;23.360;2023-02-03T01:26:30;95500.75;;;3.85;72.19
34742;BME280;20968;42.696;23.360;2023-02-03T01:29:02;95500.84;;;3.82;72.46
34742;BME280;20968;42.696;23.360;2023-02-03T01:31:37;95501.44;;;3.89;71.68
34742;BME280;20968;42.696;23.360;2023-02-03T01:34:11;95497.63;;;3.86;71.85
34742;BME280;20968;42.696;23.360;2023-02-03T01:36:40;95501.34;;;3.77;71.23
34742;BME280;20968;42.696;23.360;2023-02-03T01:39:32;95519.47;;;3.83;71.29
34742;BME280;20968;42.696;23.360;2023-02-03T01:42:01;95514.88;;;3.80;71.08
34742;BME280;20968;42.696;23.360;2023-02-03T01:44:42;95499.38;;;3.77;70.75
34742;BME280;20968;42.696;23.360;2023-02-03T01:50:40;95525.09;;;3.60;71.42
34742;BME280;20968;42.696;23.360;2023-02-03T01:53:09;95505.63;;;3.62;71.46
34742;BME280;20968;42.696;23.360;2023-02-03T01:55:42;95530.88;;;3.78;70.96
34742;BME280;20968;42.696;23.360;2023-02-03T01:58:17;95518.88;;;3.60;71.21
34742;BME280;20968;42.696;23.360;2023-02-03T02:00:51;95519.31;;;3.58;70.87
34742;BME280;20968;42.696;23.360;2023-02-03T02:03:19;95533.19;;;3.80;70.29
34742;BME280;20968;42.696;23.360;2023-02-03T02:05:51;95533.59;;;3.78;70.04
34742;BME280;20968;42.696;23.360;2023-02-03T02:08:20;95519.66;;;3.60;70.30
34742;BME280;20968;42.696;23.360;2023-02-03T02:10:50;95521.41;;;3.51;70.83
34742;BME280;20968;42.696;23.360;2023-02-03T02:13:18;95535.03;;;3.51;70.55
34742;BME280;20968;42.696;23.360;2023-02-03T02:37:49;95559.44;;;3.70;70.00
34742;BME280;20968;42.696;23.360;2023-02-03T02:40:55;95561.91;;;3.65;69.90
34742;BME280;20968;42.696;23.360;2023-02-03T02:46:02;95545.56;;;3.65;69.67
34742;BME280;20968;42.696;23.360;2023-02-03T02:48:52;95556.97;;;3.60;69.69
34742;BME280;20968;42.696;23.360;2023-02-03T02:51:22;95549.13;;;3.46;70.49
34742;BME280;20968;42.696;23.360;2023-02-03T02:53:56;95555.84;;;3.41;70.49
34742;BME280;20968;42.696;23.360;2023-02-03T02:56:28;95532.34;;;3.31;70.28
34742;BME280;20968;42.696;23.360;2023-02-03T02:58:56;95546.22;;;3.37;70.79
34742;BME280;20968;42.696;23.360;2023-02-03T03:01:25;95546.66;;;3.35;70.98
34742;BME280;20968;42.696;23.360;2023-02-03T03:03:52;95555.41;;;3.43;71.07
34742;BME280;20968;42.696;23.360;2023-02-03T03:06:19;95560.84;;;3.43;70.84
34742;BME280;20968;42.696;23.360;2023-02-03T03:08:57;95548.91;;;3.21;69.98
34742;BME280;20968;42.696;23.360;2023-02-03T03:11:32;95573.34;;;3.40;69.85
34742;BME280;20968;42.696;23.360;2023-02-03T03:14:03;95561.31;;;3.22;69.55
34742;BME280;20968;42.696;23.360;2023-02-03T03:16:33;95552.75;;;3.23;69.30
34742;BME280;20968;42.696;23.360;2023-02-03T03:19:08;95573.66;;;3.26;69.13
34742;BME280;20968;42.696;23.360;2023-02-03T03:21:42;95567.56;;;3.22;69.03
34742;BME280;20968;42.696;23.360;2023-02-03T03:24:15;95585.72;;;3.25;68.75
34742;BME280;20968;42.696;23.360;2023-02-03T03:27:08;95583.09;;;3.22;69.20
34742;BME280;20968;42.696;23.360;2023-02-03T03:29:41;95568.88;;;3.14;68.64
34742;BME280;20968;42.696;23.360;2023-02-03T03:32:12;95589.63;;;3.24;68.43
34742;BME280;20968;42.696;23.360;2023-02-03T03:34:39;95573.81;;;3.19;68.38
34742;BME280;20968;42.696;23.360;2023-02-03T03:37:34;95589.91;;;3.30;67.52
34742;BME280;20968;42.696;23.360;2023-02-03T03:40:06;95583.44;;;3.24;67.77
34742;BME280;20968;42.696;23.360;2023-02-03T03:45:33;95590.06;;;3.23;67.19
34742;BME280;20968;42.696;23.360;2023-02-03T03:51:10;95594.25;;;3.27;66.91
34742;BME280;20968;42.696;23.360;2023-02-03T03:53:42;95593.66;;;3.36;67.00
34742;BME280;20968;42.696;23.360;2023-02-03T03:56:15;95577.16;;;3.27;67.49
34742;BME280;20968;42.696;23.360;2023-02-03T03:58:44;95582.47;;;3.34;66.93
34742;BME280;20968;42.696;23.360;2023-02-03T04:01:12;95592.47;;;3.37;67.13
34742;BME280;20968;42.696;23.360;2023-02-03T04:04:05;95594.38;;;3.40;67.02
34742;BME280;20968;42.696;23.360;2023-02-03T04:06:27;95600.28;;;3.35;67.20
34742;BME280;20968;42.696;23.360;2023-02-03T04:08:53;95600.72;;;3.33;67.22
34742;BME280;20968;42.696;23.360;2023-02-03T04:11:18;95605.34;;;3.17;67.85
34742;BME280;20968;42.696;23.360;2023-02-03T04:14:02;95625.63;;;3.32;68.01
34742;BME280;20968;42.696;23.360;2023-02-03T04:16:30;95604.09;;;3.21;67.98
34742;BME280;20968;42.696;23.360;2023-02-03T04:18:56;95618.66;;;3.31;68.02
34742;BME280;20968;42.696;23.360;2023-02-03T04:21:21;95624.78;;;3.35;67.92
34742;BME280;20968;42.696;23.360;2023-02-03T04:23:47;95638.22;;;3.42;67.72
34742;BME280;20968;42.696;23.360;2023-02-03T04:26:12;95642.34;;;3.50;67.68
34742;BME280;20968;42.696;23.360;2023-02-03T04:28:38;95629.31;;;3.41;67.71
34742;BME280;20968;42.696;23.360;2023-02-03T04:31:04;95634.75;;;3.41;67.85
34742;BME280;20968;42.696;23.360;2023-02-03T04:33:30;95637.91;;;3.40;67.55
34742;BME280;20968;42.696;23.360;2023-02-03T04:35:56;95650.09;;;3.51;67.49
34742;BME280;20968;42.696;23.360;2023-02-03T04:38:32;95651.22;;;3.54;67.59
34742;BME280;20968;42.696;23.360;2023-02-03T04:40:57;95657.78;;;3.37;67.66
34742;BME280;20968;42.696;23.360;2023-02-03T04:43:25;95666.56;;;3.44;67.46
34742;BME280;20968;42.696;23.360;2023-02-03T04:45:51;95665.25;;;3.33;67.75
34742;BME280;20968;42.696;23.360;2023-02-03T04:48:17;95672.28;;;3.30;67.71
34742;BME280;20968;42.696;23.360;2023-02-03T04:50:42;95659.97;;;3.26;68.14
34742;BME280;20968;42.696;23.360;2023-02-03T04:53:08;95675.91;;;3.43;67.90
34742;BME280;20968;42.696;23.360;2023-02-03T04:55:33;95659.03;;;3.32;67.71
34742;BME280;20968;42.696;23.360;2023-02-03T04:57:59;95679.41;;;3.44;67.72
34742;BME280;20968;42.696;23.360;2023-02-03T05:00:27;95677.47;;;3.44;67.43
34742;BME280;20968;42.696;23.360;2023-02-03T05:02:53;95673.41;;;3.33;68.15
34742;BME280;20968;42.696;23.360;2023-02-03T05:05:19;95686.03;;;3.43;67.83
34742;BME280;20968;42.696;23.360;2023-02-03T05:07:45;95681.97;;;3.51;67.36
34742;BME280;20968;42.696;23.360;2023-02-03T05:10:12;95682.84;;;3.48;67.62
34742;BME280;20968;42.696;23.360;2023-02-03T05:12:38;95696.00;;;3.49;67.50
34742;BME280;20968;42.696;23.360;2023-02-03T05:15:06;95690.22;;;3.47;66.92
34742;BME280;20968;42.696;23.360;2023-02-03T05:17:31;95692.31;;;3.40;67.54
34742;BME280;20968;42.696;23.360;2023-02-03T05:20:03;95693.94;;;3.37;67.30
34742;BME280;20968;42.696;23.360;2023-02-03T05:22:28;95693.16;;;3.37;67.57
34742;BME280;20968;42.696;23.360;2023-02-03T05:24:54;95703.53;;;3.42;67.66
34742;BME280;20968;42.696;23.360;2023-02-03T05:27:20;95694.69;;;3.38;67.67
34742;BME280;20968;42.696;23.360;2023-02-03T05:29:46;95710.66;;;3.55;67.06
34742;BME280;20968;42.696;23.360;2023-02-03T05:32:11;95700.81;;;3.42;67.38
34742;BME280;20968;42.696;23.360;2023-02-03T05:34:37;95709.53;;;3.53;67.24
34742;BME280;20968;42.696;23.360;2023-02-03T05:37:02;95702.13;;;3.53;66.88
34742;BME280;20968;42.696;23.360;2023-02-03T05:39:30;95697.84;;;3.36;67.49
34742;BME280;20968;42.696;23.360;2023-02-03T05:41:55;95675.06;;;3.27;67.15
34742;BME280;20968;42.696;23.360;2023-02-03T05:44:25;95672.78;;;3.25;67.41
34742;BME280;20968;42.696;23.360;2023-02-03T05:47:09;95690.16;;;3.31;67.43
34742;BME280;20968;42.696;23.360;2023-02-03T05:49:35;95702.34;;;3.43;67.02
34742;BME280;20968;42.696;23.360;2023-02-03T05:52:03;95691.91;;;3.22;67.20
34742;BME280;20968;42.696;23.360;2023-02-03T05:54:32;95718.28;;;3.25;67.62
34742;BME280;20968;42.696;23.360;2023-02-03T05:56:57;95713.72;;;3.18;67.53
34742;BME280;20968;42.696;23.360;2023-02-03T05:59:26;95708.56;;;3.24;67.47
34742;BME280;20968;42.696;23.360;2023-02-03T06:01:51;95707.16;;;3.16;67.73
34742;BME280;20968;42.696;23.360;2023-02-03T06:04:20;95709.31;;;3.24;67.61
34742;BME280;20968;42.696;23.360;2023-02-03T06:06:45;95727.75;;;3.36;67.35
34742;BME280;20968;42.696;23.360;2023-02-03T06:09:12;95721.91;;;3.38;67.39
34742;BME280;20968;42.696;23.360;2023-02-03T06:11:37;95708.44;;;3.31;66.79
34742;BME280;20968;42.696;23.360;2023-02-03T06:14:03;95714.75;;;3.24;67.42
34742;BME280;20968;42.696;23.360;2023-02-03T06:16:36;95728.06;;;3.19;67.26
34742;BME280;20968;42.696;23.360;2023-02-03T06:19:03;95715.31;;;3.16;66.85
34742;BME280;20968;42.696;23.360;2023-02-03T06:21:29;95711.69;;;3.03;67.06
34742;BME280;20968;42.696;23.360;2023-02-03T06:23:54;95717.47;;;3.05;67.11
34742;BME280;20968;42.696;23.360;2023-02-03T06:26:20;95718.56;;;3.07;66.79
34742;BME280;20968;42.696;23.360;2023-02-03T06:28:46;95726.75;;;3.27;66.79
34742;BME280;20968;42.696;23.360;2023-02-03T06:31:11;95743.44;;;3.29;67.04
34742;BME280;20968;42.696;23.360;2023-02-03T06:33:37;95745.72;;;3.30;66.91
34742;BME280;20968;42.696;23.360;2023-02-03T06:36:05;95757.91;;;3.45;66.16
34742;BME280;20968;42.696;23.360;2023-02-03T06:38:31;95744.34;;;3.42;66.77
34742;BME280;20968;42.696;23.360;2023-02-03T06:40:56;95748.34;;;3.37;66.10
34742;BME280;20968;42.696;23.360;2023-02-03T06:43:22;95755.19;;;3.45;65.67
34742;BME280;20968;42.696;23.360;2023-02-03T06:45:47;95770.25;;;3.50;65.74
34742;BME280;20968;42.696;23.360;2023-02-03T06:48:15;95765.88;;;3.56;65.05
34742;BME280;20968;42.696;23.360;2023-02-03T06:53:19;95764.19;;;3.62;64.57
34742;BME280;20968;42.696;23.360;2023-02-03T06:55:44;95763.69;;;3.67;64.19
34742;BME280;20968;42.696;23.360;2023-02-03T06:58:12;95783.72;;;3.95;64.29
34742;BME280;20968;42.696;23.360;2023-02-03T07:00:41;95778.06;;;4.06;63.86
34742;BME280;20968;42.696;23.360;2023-02-03T07:03:08;95753.44;;;3.93;62.80
34742;BME280;20968;42.696;23.360;2023-02-03T07:05:35;95768.44;;;4.01;62.96
34742;BME280;20968;42.696;23.360;2023-02-03T07:08:01;95773.94;;;4.17;62.57
34742;BME280;20968;42.696;23.360;2023-02-03T07:10:29;95771.44;;;4.23;62.11
34742;BME280;20968;42.696;23.360;2023-02-03T07:13:03;95779.09;;;4.12;62.19
34742;BME280;20968;42.696;23.360;2023-02-03T07:15:28;95762.56;;;4.03;62.53
34742;BME280;20968;42.696;23.360;2023-02-03T07:17:54;95770.41;;;4.17;63.02
34742;BME280;20968;42.696;23.360;2023-02-03T07:20:22;95754.81;;;4.01;62.57
34742;BME280;20968;42.696;23.360;2023-02-03T07:22:55;95760.19;;;4.05;62.84
34742;BME280;20968;42.696;23.360;2023-02-03T07:25:26;95765.88;;;4.10;63.17
34742;BME280;20968;42.696;23.360;2023-02-03T07:27:52;95770.94;;;4.12;63.09
34742;BME280;20968;42.696;23.360;2023-02-03T07:30:19;95770.50;;;4.13;62.43
34742;BME280;20968;42.696;23.360;2023-02-03T07:32:48;95763.06;;;3.98;62.19
34742;BME280;20968;42.696;23.360;2023-02-03T07:38:23;95769.91;;;4.06;62.82
34742;BME280;20968;42.696;23.360;2023-02-03T07:40:49;95766.91;;;4.00;62.49
34742;BME280;20968;42.696;23.360;2023-02-03T07:43:15;95785.22;;;4.16;61.89
34742;BME280;20968;42.696;23.360;2023-02-03T07:45:41;95788.50;;;4.27;62.42
34742;BME280;20968;42.696;23.360;2023-02-03T07:48:07;95783.13;;;4.23;62.05
34742;BME280;20968;42.696;23.360;2023-02-03T07:50:32;95775.13;;;4.16;61.81
34742;BME280;20968;42.696;23.360;2023-02-03T07:53:01;95801.28;;;4.30;61.59
34742;BME280;20968;42.696;23.360;2023-02-03T07:55:27;95790.66;;;4.35;60.70
34742;BME280;20968;42.696;23.360;2023-02-03T07:57:54;95783.09;;;4.43;61.15
34742;BME280;20968;42.696;23.360;2023-02-03T08:00:20;95781.78;;;4.31;60.90
34742;BME280;20968;42.696;23.360;2023-02-03T08:02:46;95791.66;;;4.41;60.96
34742;BME280;20968;42.696;23.360;2023-02-03T08:05:12;95793.00;;;4.33;59.96
34742;BME280;20968;42.696;23.360;2023-02-03T08:07:39;95799.16;;;4.37;60.31
34742;BME280;20968;42.696;23.360;2023-02-03T08:10:06;95790.22;;;4.37;60.13
34742;BME280;20968;42.696;23.360;2023-02-03T08:12:31;95787.56;;;4.33;60.15
34742;BME280;20968;42.696;23.360;2023-02-03T08:14:57;95800.91;;;4.47;60.63
34742;BME280;20968;42.696;23.360;2023-02-03T08:17:22;95805.50;;;4.50;59.95
34742;BME280;20968;42.696;23.360;2023-02-03T08:19:48;95811.13;;;4.59;59.91
34742;BME280;20968;42.696;23.360;2023-02-03T08:22:13;95799.56;;;4.55;60.09
34742;BME280;20968;42.696;23.360;2023-02-03T08:24:42;95818.81;;;4.64;59.95
34742;BME280;20968;42.696;23.360;2023-02-03T08:27:12;95801.34;;;4.61;59.86
34742;BME280;20968;42.696;23.360;2023-02-03T08:29:38;95804.69;;;4.69;59.26
34742;BME280;20968;42.696;23.360;2023-02-03T08:32:04;95813.19;;;4.71;58.31
34742;BME280;20968;42.696;23.360;2023-02-03T08:34:29;95808.13;;;4.54;58.31
34742;BME280;20968;42.696;23.360;2023-02-03T08:36:55;95808.22;;;4.50;58.87
34742;BME280;20968;42.696;23.360;2023-02-03T08:39:20;95821.00;;;4.53;58.70
34742;BME280;20968;42.696;23.360;2023-02-03T08:41:45;95807.19;;;4.44;58.25
34742;BME280;20968;42.696;23.360;2023-02-03T08:44:11;95821.44;;;4.52;58.10
34742;BME280;20968;42.696;23.360;2023-02-03T08:46:36;95828.69;;;4.58;56.93
34742;BME280;20968;42.696;23.360;2023-02-03T08:49:07;95838.16;;;4.69;56.90
34742;BME280;20968;42.696;23.360;2023-02-03T08:51:33;95831.00;;;4.75;56.66
34742;BME280;20968;42.696;23.360;2023-02-03T08:53:58;95811.50;;;4.77;56.92
34742;BME280;20968;42.696;23.360;2023-02-03T08:56:24;95849.94;;;4.98;56.58
34742;BME280;20968;42.696;23.360;2023-02-03T08:58:50;95842.38;;;4.90;56.20
34742;BME280;20968;42.696;23.360;2023-02-03T09:01:16;95835.22;;;4.96;55.90
34742;BME280;20968;42.696;23.360;2023-02-03T09:03:41;95851.25;;;5.10;56.54
34742;BME280;20968;42.696;23.360;2023-02-03T09:06:08;95839.56;;;5.09;56.68
34742;BME280;20968;42.696;23.360;2023-02-03T09:08:36;95848.50;;;4.94;56.41
34742;BME280;20968;42.696;23.360;2023-02-03T09:11:01;95830.44;;;4.84;57.54
34742;BME280;20968;42.696;23.360;2023-02-03T09:13:27;95824.47;;;4.89;57.82
34742;BME280;20968;42.696;23.360;2023-02-03T09:15:52;95827.19;;;4.89;57.96
34742;BME280;20968;42.696;23.360;2023-02-03T09:18:18;95828.91;;;4.99;58.79
34742;BME280;20968;42.696;23.360;2023-02-03T09:20:43;95823.94;;;4.94;57.69
34742;BME280;20968;42.696;23.360;2023-02-03T09:23:08;95810.66;;;4.96;58.11
34742;BME280;20968;42.696;23.360;2023-02-03T09:25:35;95816.28;;;5.05;57.34
34742;BME280;20968;42.696;23.360;2023-02-03T09:28:01;95818.84;;;4.96;56.86
34742;BME280;20968;42.696;23.360;2023-02-03T09:30:27;95821.91;;;4.98;55.80
34742;BME280;20968;42.696;23.360;2023-02-03T09:32:53;95826.69;;;5.10;56.42
34742;BME280;20968;42.696;23.360;2023-02-03T09:35:21;95804.84;;;5.10;57.20
34742;BME280;20968;42.696;23.360;2023-02-03T09:37:46;95841.94;;;5.07;57.09
34742;BME280;20968;42.696;23.360;2023-02-03T09:40:19;95846.81;;;5.16;57.54
34742;BME280;20968;42.696;23.360;2023-02-03T09:43:06;95813.56;;;5.21;57.56
34742;BME280;20968;42.696;23.360;2023-02-03T09:45:34;95840.66;;;5.28;57.00
34742;BME280;20968;42.696;23.360;2023-02-03T09:48:05;95822.66;;;4.98;56.75
34742;BME280;20968;42.696;23.360;2023-02-03T09:50:36;95827.91;;;5.09;57.56
34742;BME280;20968;42.696;23.360;2023-02-03T09:53:15;95825.09;;;5.12;57.06
34742;BME280;20968;42.696;23.360;2023-02-03T09:55:45;95828.47;;;5.16;56.47
34742;BME280;20968;42.696;23.360;2023-02-03T09:58:16;95821.13;;;5.13;55.53
34742;BME280;20968;42.696;23.360;2023-02-03T10:00:57;95843.75;;;5.14;55.00
34742;BME280;20968;42.696;23.360;2023-02-03T10:06:32;95819.63;;;5.12;55.31
34742;BME280;20968;42.696;23.360;2023-02-03T10:11:44;95811.59;;;5.21;54.48
34742;BME280;20968;42.696;23.360;2023-02-03T10:22:02;95811.81;;;5.42;52.59
34742;BME280;20968;42.696;23.360;2023-02-03T10:24:43;95795.88;;;5.41;51.96
34742;BME280;20968;42.696;23.360;2023-02-03T10:27:19;95814.63;;;5.39;51.86
34742;BME280;20968;42.696;23.360;2023-02-03T10:29:50;95789.56;;;5.28;51.61
34742;BME280;20968;42.696;23.360;2023-02-03T10:32:18;95807.06;;;5.46;52.17
34742;BME280;20968;42.696;23.360;2023-02-03T10:34:46;95796.25;;;5.55;52.15
34742;BME280;20968;42.696;23.360;2023-02-03T10:37:26;95802.41;;;5.59;50.71
34742;BME280;20968;42.696;23.360;2023-02-03T10:39:53;95792.81;;;5.67;50.37
34742;BME280;20968;42.696;23.360;2023-02-03T10:42:20;95785.28;;;5.87;50.17
34742;BME280;20968;42.696;23.360;2023-02-03T10:44:57;95788.63;;;6.07;50.12
34742;BME280;20968;42.696;23.360;2023-02-03T10:47:24;95812.97;;;6.02;51.05
34742;BME280;20968;42.696;23.360;2023-02-03T10:49:53;95790.44;;;5.98;51.56
34742;BME280;20968;42.696;23.360;2023-02-03T10:52:26;95814.97;;;5.85;49.53
34742;BME280;20968;42.696;23.360;2023-02-03T10:54:51;95786.47;;;5.70;49.79
34742;BME280;20968;42.696;23.360;2023-02-03T10:57:17;95800.34;;;5.63;47.81
34742;BME280;20968;42.696;23.360;2023-02-03T10:59:45;95799.69;;;5.59;49.24
34742;BME280;20968;42.696;23.360;2023-02-03T11:04:45;95800.97;;;5.55;47.96
34742;BME280;20968;42.696;23.360;2023-02-03T11:07:23;95794.38;;;5.68;48.10
34742;BME280;20968;42.696;23.360;2023-02-03T11:09:49;95793.34;;;5.62;48.68
34742;BME280;20968;42.696;23.360;2023-02-03T11:12:17;95790.59;;;5.62;48.32
34742;BME280;20968;42.696;23.360;2023-02-03T11:14:52;95798.53;;;5.73;47.24
34742;BME280;20968;42.696;23.360;2023-02-03T11:17:23;95788.13;;;5.68;46.93
34742;BME280;20968;42.696;23.360;2023-02-03T11:19:52;95793.13;;;5.57;46.63
34742;BME280;20968;42.696;23.360;2023-02-03T11:22:29;95787.06;;;5.49;47.97
34742;BME280;20968;42.696;23.360;2023-02-03T11:24:57;95775.69;;;5.51;48.33
34742;BME280;20968;42.696;23.360;2023-02-03T11:27:24;95778.44;;;5.51;47.39
34742;BME280;20968;42.696;23.360;2023-02-03T11:30:13;95767.09;;;5.52;47.18
34742;BME280;20968;42.696;23.360;2023-02-03T11:32:41;95771.16;;;5.89;46.42
34742;BME280;20968;42.696;23.360;2023-02-03T11:35:21;95774.47;;;5.96;46.13
34742;BME280;20968;42.696;23.360;2023-02-03T11:37:49;95781.50;;;6.10;46.87
34742;BME280;20968;42.696;23.360;2023-02-03T11:42:44;95761.25;;;5.66;47.76
34742;BME280;20968;42.696;23.360;2023-02-03T11:47:50;95755.69;;;5.41;47.02
34742;BME280;20968;42.696;23.360;2023-02-03T12:12:13;95757.50;;;6.42;43.92
34742;BME280;20968;42.696;23.360;2023-02-03T12:20:28;95757.88;;;7.15;41.76
34742;BME280;20968;42.696;23.360;2023-02-03T12:30:54;95741.00;;;7.71;38.56
34742;BME280;20968;42.696;23.360;2023-02-03T12:33:34;95768.13;;;7.70;38.20
34742;BME280;20968;42.696;23.360;2023-02-03T12:41:20;95748.59;;;7.12;38.63
34742;BME280;20968;42.696;23.360;2023-02-03T12:43:50;95747.97;;;7.30;38.45
34742;BME280;20968;42.696;23.360;2023-02-03T12:46:45;95759.69;;;7.30;39.01
34742;BME280;20968;42.696;23.360;2023-02-03T12:49:14;95751.00;;;6.98;40.58
34742;BME280;20968;42.696;23.360;2023-02-03T12:57:27;95727.19;;;6.24;41.62
34742;BME280;20968;42.696;23.360;2023-02-03T13:00:12;95723.59;;;6.27;42.27
34742;BME280;20968;42.696;23.360;2023-02-03T13:05:36;95698.31;;;5.98;44.08
34742;BME280;20968;42.696;23.360;2023-02-03T13:08:12;95712.94;;;6.04;44.62
34742;BME280;20968;42.696;23.360;2023-02-03T13:10:40;95714.16;;;6.03;45.29
34742;BME280;20968;42.696;23.360;2023-02-03T13:13:13;95723.81;;;5.79;45.17
34742;BME280;20968;42.696;23.360;2023-02-03T13:15:45;95722.66;;;5.64;44.85
34742;BME280;20968;42.696;23.360;2023-02-03T13:20:40;95717.00;;;6.00;43.80
34742;BME280;20968;42.696;23.360;2023-02-03T13:23:09;95707.41;;;6.20;48.74
34742;BME280;20968;42.696;23.360;2023-02-03T13:44:17;95705.97;;;6.53;43.92
34742;BME280;20968;42.696;23.360;2023-02-03T13:46:46;95704.97;;;6.47;44.07
34742;BME280;20968;42.696;23.360;2023-02-03T13:49:21;95710.91;;;6.45;44.34
34742;BME280;20968;42.696;23.360;2023-02-03T13:51:48;95692.84;;;6.23;45.21
34742;BME280;20968;42.696;23.360;2023-02-03T13:54:32;95711.31;;;6.19;45.93
34742;BME280;20968;42.696;23.360;2023-02-03T13:57:01;95702.34;;;6.06;46.00
34742;BME280;20968;42.696;23.360;2023-02-03T14:04:55;95717.66;;;6.04;47.42
34742;BME280;20968;42.696;23.360;2023-02-03T14:07:33;95718.09;;;6.02;47.71
34742;BME280;20968;42.696;23.360;2023-02-03T14:12:38;95708.38;;;6.14;47.50
34742;BME280;20968;42.696;23.360;2023-02-03T14:20:38;95711.41;;;6.03;47.90
34742;BME280;20968;42.696;23.360;2023-02-03T14:25:30;95702.25;;;5.69;48.95
34742;BME280;20968;42.696;23.360;2023-02-03T14:28:13;95701.88;;;5.54;49.20
34742;BME280;20968;42.696;23.360;2023-02-03T14:33:48;95695.75;;;5.22;49.57
34742;BME280;20968;42.696;23.360;2023-02-03T14:36:51;95701.63;;;5.37;49.75
34742;BME280;20968;42.696;23.360;2023-02-03T14:44:22;95711.38;;;5.50;49.31
34742;BME280;20968;42.696;23.360;2023-02-03T14:46:58;95713.34;;;5.49;49.45
34742;BME280;20968;42.696;23.360;2023-02-03T14:54:52;95710.84;;;5.55;49.63
34742;BME280;20968;42.696;23.360;2023-02-03T15:07:55;95670.50;;;5.34;48.90
34742;BME280;20968;42.696;23.360;2023-02-03T15:12:50;95647.22;;;5.30;48.78
34742;BME280;20968;42.696;23.360;2023-02-03T15:15:27;95641.56;;;5.37;48.41
34742;BME280;20968;42.696;23.360;2023-02-03T15:17:55;95655.72;;;5.32;46.45
34742;BME280;20968;42.696;23.360;2023-02-03T15:20:40;95656.59;;;5.29;46.48
34742;BME280;20968;42.696;23.360;2023-02-03T15:23:29;95648.06;;;5.27;46.44
34742;BME280;20968;42.696;23.360;2023-02-03T15:26:00;95641.63;;;5.21;46.78
34742;BME280;20968;42.696;23.360;2023-02-03T15:28:28;95626.97;;;5.15;47.00
34742;BME280;20968;42.696;23.360;2023-02-03T15:31:21;95643.66;;;5.17;47.22
34742;BME280;20968;42.696;23.360;2023-02-03T15:34:21;95624.56;;;5.17;47.33
34742;BME280;20968;42.696;23.360;2023-02-03T15:36:50;95623.38;;;5.18;47.00
34742;BME280;20968;42.696;23.360;2023-02-03T15:39:38;95620.72;;;5.14;47.31
34742;BME280;20968;42.696;23.360;2023-02-03T15:47:57;95634.22;;;5.05;47.98
34742;BME280;20968;42.696;23.360;2023-02-03T15:50:36;95613.09;;;4.81;49.09
34742;BME280;20968;42.696;23.360;2023-02-03T15:53:10;95612.88;;;4.88;48.58
34742;BME280;20968;42.696;23.360;2023-02-03T15:55:44;95618.69;;;4.90;48.57
34742;BME280;20968;42.696;23.360;2023-02-03T15:58:25;95607.28;;;4.79;49.10
34742;BME280;20968;42.696;23.360;2023-02-03T16:00:58;95619.72;;;4.80;48.70
34742;BME280;20968;42.696;23.360;2023-02-03T16:03:46;95622.72;;;4.85;49.15
34742;BME280;20968;42.696;23.360;2023-02-03T16:06:26;95619.13;;;4.88;48.15
34742;BME280;20968;42.696;23.360;2023-02-03T16:08:56;95608.81;;;4.80;48.84
34742;BME280;20968;42.696;23.360;2023-02-03T16:13:56;95606.19;;;4.76;47.97
34742;BME280;20968;42.696;23.360;2023-02-03T16:16:35;95607.56;;;4.68;48.38